Time;durP1;ratioP1;P1;durP2;ratioP2;P2;SDS_P1;SDS_P2;PMS_P1;PMS_P2;Temp;Humidity;BMP_temperature;BMP_pressure;BME280_temperature;BME280_humidity;BME280_pressure;Samples;Min_cycle;Max_cycle;Signal;HPM_P1;HPM_P2
2021/04/04 00:02:05;;;;;;;117.67;46.55;;;;;;;21.13;32.12;156687.03;1783818;79;21308;-71
2021/04/04 00:04:38;;;;;;;113.05;46.02;;;;;;;21.13;32.15;156687.03;1784617;79;21189;-71
2021/04/04 00:07:11;;;;;;;122.53;46.88;;;;;;;21.06;32.23;156669.81;1785346;80;21438;-72
2021/04/04 00:09:43;;;;;;;123.00;45.15;;;;;;;21.02;32.21;156659.27;1771182;79;21325;-71
2021/04/04 00:12:16;;;;;;;122.55;47.20;;;;;;;20.72;32.40;156578.53;1802300;79;21756;-71
2021/04/04 00:14:49;;;;;;;132.65;49.85;;;;;;;20.93;32.22;156635.47;1803983;79;21701;-71
2021/04/04 00:17:22;;;;;;;119.37;46.33;;;;;;;20.96;32.19;156643.37;1803850;79;21193;-71
2021/04/04 00:19:54;;;;;;;116.33;48.10;;;;;;;21.06;32.09;156668.53;1803867;79;21205;-71
2021/04/04 00:22:27;;;;;;;126.87;49.25;;;;;;;21.02;32.12;156659.27;1772356;81;21459;-72
2021/04/04 00:24:59;;;;;;;122.02;45.65;;;;;;;20.99;32.10;156651.31;1777936;80;21202;-72
2021/04/04 00:27:32;;;;;;;116.17;43.80;;;;;;;20.97;32.10;156646.03;1783211;80;21324;-72
2021/04/04 00:30:12;;;;;;;125.47;47.30;;;;;;;21.08;31.96;156675.12;1783795;79;21186;-70
2021/04/04 00:32:44;;;;;;;129.15;47.60;;;;;;;21.02;31.95;156659.27;1760245;81;21198;-70
2021/04/04 00:35:20;;;;;;;130.25;49.38;;;;;;;21.03;31.90;156660.58;1782036;79;21665;-71
2021/04/04 00:37:53;;;;;;;134.32;47.43;;;;;;;20.91;32.05;156628.81;1785194;79;21225;-71
2021/04/04 00:40:29;;;;;;;135.65;47.48;;;;;;;20.99;32.00;156651.31;1794195;79;21435;-72
2021/04/04 00:43:01;;;;;;;125.47;46.08;;;;;;;21.09;31.93;156676.47;1816712;79;21169;-70
2021/04/04 00:45:36;;;;;;;129.20;46.58;;;;;;;21.10;31.88;156680.42;1817118;79;21269;-70
2021/04/04 00:48:09;;;;;;;114.60;44.98;;;;;;;21.13;31.81;156687.03;1817062;79;21181;-71
2021/04/04 00:50:42;;;;;;;105.45;42.45;;;;;;;20.96;31.89;156643.37;1807622;79;21241;-71
2021/04/04 00:53:15;;;;;;;110.17;41.58;;;;;;;20.77;32.67;156590.44;1781744;80;21296;-71
2021/04/04 00:55:47;;;;;;;97.45;42.05;;;;;;;20.80;32.70;156599.73;1791876;79;21300;-71
2021/04/04 00:58:19;;;;;;;94.20;40.83;;;;;;;20.82;32.56;156603.73;1804336;79;21210;-72
2021/04/04 01:00:52;;;;;;;80.12;36.10;;;;;;;20.72;32.54;156577.19;1798678;79;21142;-73
2021/04/04 01:03:24;;;;;;;78.12;35.08;;;;;;;20.67;32.60;156565.28;1799104;80;21218;-71
2021/04/04 01:06:00;;;;;;;89.40;37.17;;;;;;;20.49;32.80;156516.34;1798637;80;21317;-71
2021/04/04 01:08:32;;;;;;;85.77;36.20;;;;;;;20.43;32.79;156500.50;1798664;80;21352;-71
2021/04/04 01:11:07;;;;;;;88.45;36.30;;;;;;;20.33;32.89;156474.06;1792086;79;21245;-70
2021/04/04 01:13:50;;;;;;;72.08;30.37;;;;;;;20.09;33.21;156410.62;1783521;80;21387;-70
2021/04/04 01:16:37;;;;;;;47.80;22.02;;;;;;;20.17;33.14;156431.75;1770480;80;21178;-71
2021/04/04 01:20:04;;;;;;;42.65;20.12;;;;;;;20.12;33.29;156418.56;1783272;80;21324;-71
2021/04/04 01:23:00;;;;;;;33.58;15.95;;;;;;;20.19;33.31;156438.39;1785101;80;21705;-71
2021/04/04 01:25:55;;;;;;;36.33;16.05;;;;;;;20.32;33.51;156472.72;1785314;80;21466;-71
2021/04/04 01:28:35;;;;;;;34.08;13.15;;;;;;;20.43;33.61;156501.81;1772460;81;21340;-71
2021/04/04 01:31:08;;;;;;;35.10;13.65;;;;;;;20.71;33.57;156574.58;1781285;79;21154;-71
2021/04/04 01:33:41;;;;;;;34.08;13.53;;;;;;;20.42;33.93;156497.86;1798758;79;21222;-71
2021/04/04 01:36:16;;;;;;;34.03;15.53;;;;;;;20.52;33.90;156525.66;1798613;80;21764;-72
2021/04/04 01:38:48;;;;;;;39.08;16.05;;;;;;;20.34;33.90;156478.02;1798810;80;21721;-71
2021/04/04 01:41:32;;;;;;;42.45;17.35;;;;;;;20.61;33.47;156548.09;1799382;79;21368;-73
2021/04/04 01:44:17;;;;;;;39.40;16.37;;;;;;;20.22;33.74;156446.28;1753671;82;21351;-71
2021/04/04 01:46:51;;;;;;;32.63;15.00;;;;;;;20.02;33.97;156393.44;1753396;82;21733;-71
2021/04/04 01:49:24;;;;;;;37.60;15.32;;;;;;;20.67;33.27;156563.98;1753605;82;21391;-71
2021/04/04 01:51:56;;;;;;;34.67;15.25;;;;;;;20.77;33.18;156591.78;1782285;79;21241;-72
2021/04/04 01:54:31;;;;;;;25.95;12.28;;;;;;;20.80;33.10;156598.42;1798653;80;21249;-70
2021/04/04 01:57:04;;;;;;;24.47;11.83;;;;;;;20.87;32.97;156616.92;1797390;79;21265;-71
2021/04/04 01:59:38;;;;;;;26.15;11.55;;;;;;;20.98;32.79;156647.37;1783321;79;21296;-70
2021/04/04 02:02:10;;;;;;;25.35;12.75;;;;;;;20.96;32.71;156643.37;1770465;79;21199;-70
2021/04/04 02:04:43;;;;;;;23.25;11.83;;;;;;;21.01;32.63;156656.63;1760518;81;21325;-71
2021/04/04 02:07:16;;;;;;;24.15;11.18;;;;;;;21.03;32.59;156660.58;1760389;81;21187;-71
2021/04/04 02:09:48;;;;;;;21.60;11.30;;;;;;;21.16;32.52;156694.97;1770857;79;21328;-72
2021/04/04 02:12:21;;;;;;;27.48;11.48;;;;;;;21.16;32.54;156694.97;1785333;80;21194;-70
2021/04/04 02:14:53;;;;;;;26.68;12.68;;;;;;;21.11;32.54;156681.78;1785359;80;21312;-70
2021/04/04 02:17:26;;;;;;;25.30;12.58;;;;;;;21.17;32.49;156697.63;1775931;79;21305;-70
2021/04/04 02:19:59;;;;;;;26.57;11.45;;;;;;;21.14;32.51;156689.67;1780627;79;21249;-71
2021/04/04 02:22:31;;;;;;;18.92;9.25;;;;;;;21.69;32.05;156835.33;1747786;79;21340;-71
2021/04/04 02:25:04;;;;;;;20.27;9.08;;;;;;;21.92;31.72;156897.52;1778796;80;21380;-71
2021/04/04 02:27:37;;;;;;;17.87;9.13;;;;;;;22.35;31.37;157011.42;1797028;80;22487;-71
2021/04/04 02:30:12;;;;;;;18.23;9.43;;;;;;;22.29;31.48;156996.80;1761396;79;21193;-73
2021/04/04 02:33:02;;;;;;;18.45;7.95;;;;;;;22.11;31.58;156949.16;1786619;80;21301;-71
2021/04/04 02:35:39;;;;;;;21.97;8.93;;;;;;;22.07;31.74;156938.55;1777981;80;21217;-71
2021/04/04 02:38:21;;;;;;;21.30;8.35;;;;;;;22.43;31.43;157033.94;1781058;80;21688;-72
2021/04/04 02:40:54;;;;;;;17.00;8.50;;;;;;;22.69;31.25;157102.83;1783358;79;21187;-72
2021/04/04 02:43:29;;;;;;;16.82;8.40;;;;;;;22.47;31.50;157044.56;1797573;80;21223;-71
2021/04/04 02:46:06;;;;;;;17.30;8.85;;;;;;;22.48;31.48;157045.86;1767185;81;21368;-70
2021/04/04 02:48:48;;;;;;;18.35;8.20;;;;;;;22.17;31.86;156965.03;1755749;80;21305;-70
2021/04/04 02:51:23;;;;;;;20.82;9.00;;;;;;;22.49;31.41;157048.52;1760706;80;21159;-71
2021/04/04 02:53:56;;;;;;;18.85;8.80;;;;;;;22.33;31.48;157006.16;1797202;80;21300;-72
2021/04/04 02:56:29;;;;;;;19.70;9.58;;;;;;;22.39;31.34;157022.03;1761876;80;21811;-72
2021/04/04 02:59:01;;;;;;;25.30;10.05;;;;;;;22.33;31.35;157007.47;1767152;80;21206;-70
2021/04/04 03:01:34;;;;;;;21.45;11.40;;;;;;;22.17;31.55;156965.03;1791749;79;21831;-72
2021/04/04 03:04:07;;;;;;;21.27;10.25;;;;;;;22.05;31.73;156931.94;1788353;80;21308;-71
2021/04/04 03:06:44;;;;;;;19.25;9.20;;;;;;;21.92;31.83;156898.86;1780925;80;21291;-72
2021/04/04 03:09:16;;;;;;;24.43;10.03;;;;;;;21.95;31.95;156905.47;1753916;80;21281;-71
2021/04/04 03:11:49;;;;;;;15.88;9.08;;;;;;;21.94;32.00;156902.81;1769881;80;21185;-71
2021/04/04 03:14:23;;;;;;;16.42;8.53;;;;;;;22.36;31.68;157015.42;1767045;80;21718;-71
2021/04/04 03:16:56;;;;;;;19.55;9.08;;;;;;;22.61;31.41;157080.30;1766376;80;21216;-72
2021/04/04 03:19:29;;;;;;;23.02;9.88;;;;;;;22.74;31.29;157114.75;1780454;80;21197;-69
2021/04/04 03:22:02;;;;;;;23.73;9.80;;;;;;;22.29;31.74;156995.50;1798670;80;21383;-72
2021/04/04 03:24:35;;;;;;;20.70;8.55;;;;;;;22.38;31.65;157019.38;1779769;79;21344;-71
2021/04/04 03:27:07;;;;;;;17.10;8.48;;;;;;;22.28;31.73;156994.14;1777298;79;21264;-71
2021/04/04 03:29:40;;;;;;;18.60;9.30;;;;;;;22.30;31.77;156999.45;1750437;82;21311;-71
2021/04/04 03:32:13;;;;;;;21.87;9.23;;;;;;;22.35;31.67;157011.42;1717291;82;21379;-71
2021/04/04 03:34:45;;;;;;;16.52;8.30;;;;;;;22.60;31.43;157077.66;1772735;80;21210;-71
2021/04/04 03:37:18;;;;;;;19.27;8.55;;;;;;;22.74;31.33;157114.75;1763291;81;21372;-72
2021/04/04 03:39:50;;;;;;;14.83;7.75;;;;;;;22.77;31.32;157124.00;1757413;81;21890;-73
2021/04/04 03:42:22;;;;;;;18.48;7.97;;;;;;;22.91;31.18;157162.47;1759122;81;21841;-74
2021/04/04 03:44:56;;;;;;;14.90;7.12;;;;;;;23.03;31.11;157194.22;1770634;81;21249;-72
2021/04/04 03:47:28;;;;;;;14.98;7.50;;;;;;;23.07;31.11;157203.59;1775547;81;21359;-72
2021/04/04 03:50:00;;;;;;;18.32;7.60;;;;;;;23.11;31.04;157215.50;1775732;81;21206;-71
2021/04/04 03:52:33;;;;;;;17.25;6.78;;;;;;;23.26;30.98;157253.92;1760101;81;21296;-72
2021/04/04 03:55:07;;;;;;;13.20;6.85;;;;;;;23.37;30.87;157284.44;1751935;79;21241;-73
2021/04/04 03:57:40;;;;;;;12.37;6.58;;;;;;;23.48;30.79;157312.23;1788879;79;21313;-72
2021/04/04 04:00:12;;;;;;;14.87;6.95;;;;;;;23.68;30.66;157367.91;1775752;79;21348;-72
2021/04/04 04:02:45;;;;;;;13.20;6.20;;;;;;;23.77;30.37;157390.50;1775031;81;21880;-73
2021/04/04 04:05:20;;;;;;;13.75;6.90;;;;;;;23.48;30.63;157312.23;1770213;81;21300;-71
2021/04/04 04:07:55;;;;;;;11.93;6.62;;;;;;;23.87;30.40;157417.02;1740230;82;21190;-71
2021/04/04 04:10:28;;;;;;;15.83;7.95;;;;;;;23.71;30.65;157375.88;1718021;82;21332;-72
2021/04/04 04:13:01;;;;;;;23.95;9.93;;;;;;;23.63;30.99;157353.31;1765528;81;21368;-71
2021/04/04 04:15:33;;;;;;;18.57;8.88;;;;;;;23.32;30.82;157271.16;1777530;79;21340;-72
2021/04/04 04:18:07;;;;;;;18.95;9.05;;;;;;;23.03;31.30;157192.91;1773098;81;21202;-72
2021/04/04 04:20:40;;;;;;;22.02;9.83;;;;;;;22.88;31.56;157154.50;1761936;79;21303;-71
2021/04/04 04:23:12;;;;;;;16.25;8.43;;;;;;;22.78;31.83;157125.36;1768544;81;21364;-71
2021/04/04 04:25:44;;;;;;;19.62;8.35;;;;;;;22.81;32.00;157134.63;1736058;81;22379;-72
2021/04/04 04:28:16;;;;;;;16.52;7.40;;;;;;;22.74;32.11;157116.09;1742813;82;21768;-72
2021/04/04 04:30:49;;;;;;;18.02;8.35;;;;;;;22.84;31.98;157143.89;1782947;79;21237;-73
2021/04/04 04:33:22;;;;;;;15.78;7.72;;;;;;;22.90;31.97;157158.47;1780490;79;21312;-71
2021/04/04 04:35:55;;;;;;;14.75;6.78;;;;;;;23.07;31.77;157204.89;1790263;79;21320;-72
2021/04/04 04:38:27;;;;;;;12.65;6.80;;;;;;;22.79;32.05;157129.31;1806626;79;21194;-71
2021/04/04 04:41:01;;;;;;;13.80;6.65;;;;;;;23.18;31.71;157234.03;1806832;79;21255;-72
2021/04/04 04:43:34;;;;;;;13.25;6.78;;;;;;;23.14;31.93;157223.47;1802957;79;21190;-72
2021/04/04 04:46:08;;;;;;;16.40;7.72;;;;;;;23.20;31.91;157239.34;1794960;79;21190;-72
2021/04/04 04:48:41;;;;;;;13.72;7.08;;;;;;;23.45;31.73;157305.63;1776966;79;21237;-73
2021/04/04 04:51:13;;;;;;;11.78;5.90;;;;;;;23.59;31.54;157342.75;1775135;81;21358;-73
2021/04/04 04:53:47;;;;;;;16.57;6.33;;;;;;;23.63;31.48;157352.02;1777022;79;21763;-71
2021/04/04 04:56:19;;;;;;;15.83;6.37;;;;;;;23.69;31.38;157369.25;1735781;82;21912;-71
2021/04/04 04:58:51;;;;;;;17.32;6.60;;;;;;;;;;1736018;82;21341;-74
2021/04/04 05:01:27;;;;;;;12.03;7.35;;;;;;;23.82;31.34;157403.78;1721964;83;21317;-72
2021/04/04 05:03:59;;;;;;;11.45;6.42;;;;;;;23.80;31.38;157398.47;1729762;82;21361;-72
2021/04/04 05:06:31;;;;;;;12.07;6.47;;;;;;;23.60;31.57;157345.41;1739373;82;21378;-71
2021/04/04 05:09:06;;;;;;;11.43;6.30;;;;;;;23.62;31.61;157349.36;1739336;82;21804;-69
2021/04/04 05:11:42;;;;;;;12.65;6.45;;;;;;;23.72;31.56;157377.22;1730101;82;21841;-73
2021/04/04 05:14:15;;;;;;;14.90;6.37;;;;;;;23.80;31.66;157399.78;1733582;83;21179;-73
2021/04/04 05:16:48;;;;;;;12.93;6.17;;;;;;;23.87;31.75;157417.02;1731862;83;21178;-72
2021/04/04 05:19:20;;;;;;;17.52;7.22;;;;;;;24.12;31.42;157483.33;1717189;83;21348;-71
2021/04/04 05:21:53;;;;;;;12.33;5.87;;;;;;;24.05;31.56;157464.78;1731173;82;21246;-71
2021/04/04 05:24:25;;;;;;;13.25;6.12;;;;;;;24.13;31.49;157485.98;1733663;83;21161;-71
2021/04/04 05:26:58;;;;;;;13.35;6.12;;;;;;;24.15;31.43;157491.30;1731963;83;21261;-71
2021/04/04 05:29:30;;;;;;;16.60;7.33;;;;;;;24.21;31.43;157507.19;1728515;82;21222;-71
2021/04/04 05:32:03;;;;;;;11.40;5.78;;;;;;;24.28;31.48;157525.78;1723230;82;21702;-73
2021/04/04 05:34:38;;;;;;;12.33;6.60;;;;;;;24.32;31.46;157537.72;1701902;82;21867;-71
2021/04/04 05:37:11;;;;;;;11.20;5.28;;;;;;;24.45;31.47;157570.91;1700142;82;21302;-73
2021/04/04 05:39:43;;;;;;;9.88;4.95;;;;;;;24.18;31.71;157500.56;1736613;82;21289;-73
2021/04/04 05:42:15;;;;;;;11.55;5.60;;;;;;;24.86;31.02;157682.39;1736568;82;21372;-73
2021/04/04 05:45:02;;;;;;;10.72;5.15;;;;;;;25.00;30.89;157718.20;1736745;82;21357;-71
2021/04/04 05:47:47;;;;;;;9.80;5.00;;;;;;;25.20;30.52;157772.69;1734560;82;21416;-70
2021/04/04 05:50:40;;;;;;;10.00;4.22;;;;;;;25.35;30.43;157811.16;1716781;82;21315;-72
2021/04/04 05:53:42;;;;;;;12.43;5.85;;;;;;;25.26;30.44;157787.28;1764902;81;21446;-74
2021/04/04 05:56:25;;;;;;;12.00;6.17;;;;;;;25.53;30.24;157858.94;1785966;79;21340;-73
2021/04/04 05:59:12;;;;;;;9.60;4.97;;;;;;;25.55;30.28;157864.25;1772225;81;21200;-73
2021/04/04 06:02:06;;;;;;;8.15;4.85;;;;;;;25.58;30.12;157874.89;1781420;79;21332;-73
2021/04/04 06:05:03;;;;;;;8.83;4.08;;;;;;;25.78;30.01;157926.73;1800856;79;21202;-73
2021/04/04 06:08:15;;;;;;;5.60;3.70;;;;;;;25.93;30.07;157966.55;1768173;79;21174;-73
2021/04/04 06:11:14;;;;;;;7.47;3.30;;;;;;;25.95;29.89;157971.86;1790412;78;21355;-73
2021/04/04 06:14:21;;;;;;;8.03;4.03;;;;;;;26.32;29.69;158070.16;1702947;83;21190;-72
2021/04/04 06:17:15;;;;;;;5.22;3.10;;;;;;;26.45;29.44;158104.77;1692182;83;21334;-71
2021/04/04 06:20:00;;;;;;;6.37;2.98;;;;;;;26.47;29.39;158110.09;1770886;79;21193;-73
2021/04/04 06:22:49;;;;;;;5.03;3.00;;;;;;;26.56;29.33;158135.34;1717740;83;21855;-71
2021/04/04 06:25:41;;;;;;;9.18;3.72;;;;;;;26.59;29.38;158143.28;1794668;79;21142;-71
2021/04/04 06:28:44;;;;;;;5.50;2.75;;;;;;;26.63;29.24;158155.25;1792323;79;21807;-71
2021/04/04 06:31:36;;;;;;;5.78;2.92;;;;;;;26.68;29.25;158168.55;1806007;78;21313;-73
2021/04/04 06:34:12;;;;;;;4.83;3.12;;;;;;;26.74;29.16;158184.47;1776112;80;21305;-72
2021/04/04 06:37:32;;;;;;;5.15;2.92;;;;;;;26.82;29.19;158205.77;1785669;79;21273;-72
2021/04/04 06:40:10;;;;;;;6.53;3.72;;;;;;;26.82;29.32;158204.41;1773749;79;21868;-71
2021/04/04 06:43:22;;;;;;;6.47;3.60;;;;;;;27.02;29.09;158258.97;1770886;79;21250;-70
2021/04/04 06:46:35;;;;;;;6.03;3.10;;;;;;;27.24;28.89;158317.45;1771451;80;21674;-72
2021/04/04 06:49:29;;;;;;;6.60;3.15;;;;;;;26.90;29.27;158225.72;1772727;80;21379;-70
2021/04/04 06:52:39;;;;;;;5.20;2.90;;;;;;;27.06;29.12;158269.63;1772339;79;21343;-73
2021/04/04 06:56:08;;;;;;;4.58;2.60;;;;;;;27.13;29.04;158286.91;1771852;79;21425;-72
2021/04/04 06:59:19;;;;;;;6.80;2.95;;;;;;;27.19;28.99;158304.19;1770043;80;21216;-72
2021/04/04 07:02:07;;;;;;;7.60;4.25;;;;;;;27.12;29.10;158285.55;1742481;80;21273;-71
2021/04/04 07:04:54;;;;;;;9.93;3.60;;;;;;;26.69;29.28;158169.86;1770073;80;21383;-72
2021/04/04 07:08:16;;;;;;;7.05;3.90;;;;;;;26.63;29.36;158155.25;1768787;79;21146;-74
2021/04/04 07:11:08;;;;;;;;;;;;;;;26.88;29.06;158220.39;1773635;79;21423;-73
2021/04/04 07:14:19;;;;;;;7.87;3.83;;;;;;;26.89;29.29;158223.05;1772490;79;20326;-72
2021/04/04 07:16:59;;;;;;;7.33;4.00;;;;;;;26.89;29.49;158224.36;1772967;79;21225;-74
2021/04/04 07:19:37;;;;;;;8.15;4.12;;;;;;;27.18;29.22;158301.53;1771997;79;21438;-72
2021/04/04 07:22:52;;;;;;;6.95;4.00;;;;;;;27.34;28.97;158342.73;1775800;80;21202;-74
2021/04/04 07:25:42;;;;;;;7.30;3.17;;;;;;;27.41;28.96;158361.33;1771315;79;21422;-73
2021/04/04 07:28:40;;;;;;;7.58;3.62;;;;;;;27.40;28.87;158358.66;1771776;79;21419;-73
2021/04/04 07:31:15;;;;;;;6.40;3.50;;;;;;;27.48;28.69;158381.28;1778361;78;21886;-73
2021/04/04 07:34:05;;;;;;;7.45;3.45;;;;;;;27.74;28.69;158451.80;1781945;78;21993;-73
2021/04/04 07:37:04;;;;;;;6.85;3.95;;;;;;;27.87;28.57;158485.08;1778824;78;21201;-75
2021/04/04 07:40:03;;;;;;;8.38;4.17;;;;;;;28.12;28.28;158551.59;1779297;79;21213;-71
2021/04/04 07:42:54;;;;;;;8.23;3.92;;;;;;;28.37;28.19;158619.48;1780519;78;21214;-74
2021/04/04 07:45:42;;;;;;;6.08;3.47;;;;;;;28.54;28.06;158664.70;1775626;78;22440;-73
2021/04/04 07:48:34;;;;;;;7.08;3.60;;;;;;;28.80;27.98;158735.28;1777816;78;21248;-74
2021/04/04 07:51:17;;;;;;;5.28;3.33;;;;;;;29.08;27.73;158808.53;1711258;81;21227;-75
2021/04/04 07:54:24;;;;;;;7.65;4.60;;;;;;;29.20;27.65;158841.80;1741291;79;22049;-73
2021/04/04 07:57:04;;;;;;;5.62;4.03;;;;;;;29.32;27.45;158872.44;1742230;79;21346;-76
2021/04/04 07:59:43;;;;;;;14.30;5.78;;;;;;;29.42;27.31;158900.44;1713627;81;21911;-71
2021/04/04 08:02:30;;;;;;;7.95;4.42;;;;;;;29.63;27.18;158956.34;1739742;79;21338;-71
2021/04/04 08:05:10;;;;;;;7.20;4.17;;;;;;;29.69;27.16;158972.36;1742760;80;21261;-78
2021/04/04 08:07:49;;;;;;;5.70;3.45;;;;;;;29.98;26.97;159051.00;1709893;82;21895;-72
2021/04/04 08:10:40;;;;;;;5.78;3.35;;;;;;;30.20;26.73;159108.31;1754479;80;21482;-73
2021/04/04 08:14:00;;;;;;;6.28;3.58;;;;;;;30.35;26.57;159150.91;1712906;81;21221;-75
2021/04/04 08:16:56;;;;;;;4.10;3.10;;;;;;;30.43;26.30;159170.91;1754540;80;21309;-72
2021/04/04 08:19:29;;;;;;;5.15;3.10;;;;;;;30.47;26.52;159181.59;1710490;81;21250;-72
2021/04/04 08:22:16;;;;;;;8.70;5.05;;;;;;;31.25;26.03;159390.94;1737872;79;21864;-74
2021/04/04 08:24:53;;;;;;;6.37;4.30;;;;;;;31.53;25.51;159465.64;1713494;82;21728;-73
2021/04/04 08:27:44;;;;;;;12.43;6.90;;;;;;;31.53;25.31;159467.00;1741577;79;21206;-74
2021/04/04 08:30:28;;;;;;;11.12;5.50;;;;;;;30.64;26.02;159228.28;1711312;81;21413;-73
2021/04/04 08:33:08;;;;;;;7.60;3.83;;;;;;;30.67;26.02;159234.94;1775784;78;21226;-70
2021/04/04 08:35:41;;;;;;;5.97;3.77;;;;;;;30.65;26.03;159229.59;1780557;78;21859;-75
2021/04/04 08:38:38;;;;;;;9.03;4.35;;;;;;;30.27;26.31;159126.94;1769150;79;21667;-70
2021/04/04 08:41:13;;;;;;;6.70;3.72;;;;;;;29.76;26.62;158992.34;1776059;78;21182;-75
2021/04/04 08:43:53;;;;;;;6.00;3.90;;;;;;;29.87;26.47;159021.66;1748724;79;21391;-74
2021/04/04 08:46:50;;;;;;;8.38;4.17;;;;;;;29.52;26.91;158927.06;1776938;78;21990;-75
2021/04/04 08:49:23;;;;;;;9.18;5.15;;;;;;;29.45;27.01;158909.75;1776920;78;21771;-71
2021/04/04 08:52:18;;;;;;;7.62;4.05;;;;;;;30.58;26.66;159212.27;1774913;78;21222;-73
2021/04/04 08:54:54;;;;;;;5.22;3.15;;;;;;;31.59;25.95;159481.72;1777035;78;21174;-77
2021/04/04 08:57:43;;;;;;;4.35;2.77;;;;;;;32.12;25.25;159623.16;1776388;78;21389;-73
2021/04/04 09:00:19;;;;;;;3.60;2.08;;;;;;;32.31;24.96;159675.20;1774283;78;21221;-71
2021/04/04 09:03:23;;;;;;;4.00;2.47;;;;;;;32.34;25.21;159684.53;1778072;78;21241;-71
2021/04/04 09:06:03;;;;;;;4.45;2.30;;;;;;;32.53;24.63;159733.92;1754510;79;21402;-73
2021/04/04 09:08:44;;;;;;;8.75;3.08;;;;;;;32.33;24.78;159681.86;1778322;79;21771;-68
2021/04/04 09:11:17;;;;;;;4.35;2.35;;;;;;;32.30;24.75;159672.53;1781169;78;21784;-73
2021/04/04 09:13:54;;;;;;;4.05;2.10;;;;;;;32.21;24.70;159648.53;1778633;78;21264;-71
2021/04/04 09:16:29;;;;;;;4.15;2.70;;;;;;;32.06;24.37;159608.44;1778151;78;21276;-74
2021/04/04 09:19:04;;;;;;;4.12;2.00;;;;;;;32.27;24.50;159664.52;1777407;78;21602;-72
2021/04/04 09:21:39;;;;;;;7.10;3.85;;;;;;;32.60;24.52;159754.00;1777708;78;21281;-74
2021/04/04 09:24:13;;;;;;;5.80;2.83;;;;;;;33.32;23.65;159947.63;1781016;78;21395;-77
2021/04/04 09:26:49;;;;;;;7.22;3.10;;;;;;;33.38;23.03;159962.31;1774981;78;21155;-72
2021/04/04 09:29:26;;;;;;;6.35;3.58;;;;;;;33.21;23.21;159916.94;1744706;79;21352;-77
2021/04/04 09:32:01;;;;;;;5.12;2.80;;;;;;;32.55;23.65;159739.27;1782660;78;21170;-69
2021/04/04 09:34:34;;;;;;;4.08;2.90;;;;;;;31.97;24.23;159584.44;1775477;78;21352;-71
2021/04/04 09:37:06;;;;;;;5.75;3.08;;;;;;;32.12;24.15;159624.47;1725671;79;21732;-72
2021/04/04 09:39:39;;;;;;;5.87;3.25;;;;;;;32.09;23.94;159615.14;1778308;78;21368;-73
2021/04/04 09:42:12;;;;;;;2.95;2.22;;;;;;;32.01;23.98;159595.06;1774811;78;21740;-71
2021/04/04 09:44:49;;;;;;;5.28;2.40;;;;;;;31.92;23.52;159569.75;1779049;78;22427;-75
2021/04/04 09:47:21;;;;;;;4.67;2.70;;;;;;;31.86;23.76;159553.72;1775544;78;21189;-70
2021/04/04 09:49:54;;;;;;;3.62;2.70;;;;;;;31.94;23.60;159575.09;1756539;79;21166;-70
2021/04/04 09:52:29;;;;;;;5.15;2.70;;;;;;;31.47;24.54;159449.66;1775797;78;21210;-71
2021/04/04 09:55:09;;;;;;;6.05;4.30;;;;;;;30.96;25.26;159313.59;1775357;78;21178;-80
2021/04/04 09:57:55;;;;;;;15.88;10.68;;;;;;;30.56;25.49;159206.92;1787935;79;21146;-74
2021/04/04 10:00:38;;;;;;;5.60;3.67;;;;;;;30.02;25.99;159061.69;1782667;78;21472;-80
2021/04/04 10:03:16;;;;;;;4.30;2.23;;;;;;;29.62;26.25;158955.05;1736926;80;21237;-80
2021/04/04 10:05:50;;;;;;;2.80;2.08;;;;;;;29.23;26.49;158849.80;1773308;78;21291;-73
2021/04/04 10:08:25;;;;;;;2.70;1.72;;;;;;;29.13;26.71;158823.17;1777761;78;21824;-71
2021/04/04 10:10:59;;;;;;;2.25;1.80;;;;;;;28.77;27.09;158725.91;1780038;78;21810;-71
2021/04/04 10:13:32;;;;;;;3.80;2.27;;;;;;;29.01;27.16;158791.22;1778965;78;21214;-76
2021/04/04 10:16:05;;;;;;;3.42;2.80;;;;;;;28.81;27.18;158738.00;1776530;78;21958;-74
2021/04/04 10:18:38;;;;;;;2.87;2.10;;;;;;;28.50;27.31;158655.39;1755620;78;21368;-75
2021/04/04 10:21:12;;;;;;;4.72;3.17;;;;;;;28.51;27.79;158656.75;1789894;78;21222;-73
2021/04/04 10:23:47;;;;;;;2.87;2.37;;;;;;;28.20;28.47;158572.86;1779434;78;21209;-74
2021/04/04 10:26:22;;;;;;;3.55;2.95;;;;;;;27.82;29.24;158471.75;1776849;78;21225;-74
2021/04/04 10:29:02;;;;;;;2.98;2.42;;;;;;;27.56;29.09;158403.89;1774472;78;21248;-74
2021/04/04 10:31:48;;;;;;;2.80;2.40;;;;;;;27.21;29.52;158308.16;1774291;78;21241;-73
2021/04/04 10:34:21;;;;;;;3.98;3.00;;;;;;;27.15;29.50;158293.53;1774394;78;21217;-71
2021/04/04 10:37:04;;;;;;;3.52;3.10;;;;;;;27.16;29.44;158294.84;1759513;78;21251;-73
2021/04/04 10:39:37;;;;;;;3.35;2.95;;;;;;;27.16;29.28;158296.20;1751250;79;21330;-73
2021/04/04 10:42:16;;;;;;;4.80;3.15;;;;;;;27.17;29.12;158298.88;1742027;79;21208;-74
2021/04/04 10:44:48;;;;;;;3.72;2.98;;;;;;;27.16;29.12;158296.20;1753967;79;21899;-74
2021/04/04 10:47:24;;;;;;;3.20;2.72;;;;;;;27.16;29.25;158296.20;1744770;79;21250;-72
2021/04/04 10:49:56;;;;;;;4.03;3.10;;;;;;;27.20;29.06;158305.50;1743213;79;21282;-74
2021/04/04 10:52:29;;;;;;;5.58;3.25;;;;;;;27.11;28.95;158281.58;1743464;80;21433;-73
2021/04/04 10:55:02;;;;;;;3.75;2.67;;;;;;;27.07;29.10;158272.28;1743061;79;21179;-74
2021/04/04 10:57:37;;;;;;;3.33;2.80;;;;;;;27.05;29.40;158266.95;1750699;79;21243;-73
2021/04/04 11:00:11;;;;;;;3.20;2.60;;;;;;;26.91;29.46;158229.69;1743067;79;21814;-73
2021/04/04 11:02:43;;;;;;;5.85;3.42;;;;;;;26.89;30.71;158223.05;1750843;79;21225;-72
2021/04/04 11:05:17;;;;;;;4.10;2.95;;;;;;;26.61;31.53;158149.97;1742892;79;21171;-73
2021/04/04 11:07:49;;;;;;;6.17;4.12;;;;;;;26.44;31.69;158102.11;1740305;80;21238;-74
2021/04/04 11:10:22;;;;;;;7.58;4.75;;;;;;;26.37;31.68;158083.47;1745908;79;21223;-73
2021/04/04 11:12:54;;;;;;;7.47;4.70;;;;;;;26.33;31.84;158074.13;1744905;79;21219;-76
2021/04/04 11:15:27;;;;;;;7.42;4.62;;;;;;;26.39;31.84;158088.80;1746329;79;21268;-78
2021/04/04 11:18:33;;;;;;;5.97;4.70;;;;;;;26.92;31.42;158230.98;1747000;80;21179;-76
2021/04/04 11:21:20;;;;;;;6.33;4.00;;;;;;;28.36;31.18;158615.47;1748435;79;21187;-77
2021/04/04 11:23:55;;;;;;;5.00;3.65;;;;;;;31.51;28.55;159460.30;1744344;79;21548;-79
2021/04/04 11:26:34;;;;;;;3.42;2.70;;;;;;;34.09;25.98;160152.09;1743530;80;21341;-78
2021/04/04 11:29:12;;;;;;;;;;;;;;;35.45;23.97;160518.45;1749252;79;22418;-78
2021/04/04 11:31:56;;;;;;;3.60;2.85;;;;;;;36.76;22.53;160870.47;1744411;80;20241;-78
2021/04/04 11:34:40;;;;;;;2.80;2.45;;;;;;;38.36;22.44;161303.28;1742383;79;21215;-77
2021/04/04 11:37:19;;;;;;;3.30;2.40;;;;;;;39.77;21.69;161681.47;1751263;79;21257;-77
2021/04/04 11:40:16;;;;;;;4.08;2.47;;;;;;;39.29;21.37;161552.69;1747939;79;21332;-77
2021/04/04 11:43:29;;;;;;;2.92;2.50;;;;;;;38.17;21.43;161252.33;1746419;79;21333;-75
2021/04/04 11:46:01;;;;;;;3.80;3.00;;;;;;;36.83;21.45;160890.56;1742405;80;21888;-78
2021/04/04 11:48:35;;;;;;;4.65;2.72;;;;;;;35.57;22.24;160551.97;1742325;79;21238;-79
2021/04/04 11:51:19;;;;;;;3.85;2.77;;;;;;;34.89;22.46;160367.34;1742906;79;21888;-78
2021/04/04 11:53:51;;;;;;;3.08;2.77;;;;;;;34.10;22.89;160156.08;1739095;79;21179;-78
2021/04/04 11:56:45;;;;;;;2.92;2.40;;;;;;;33.62;23.30;160027.78;1742445;79;21222;-78
2021/04/04 11:59:18;;;;;;;4.15;2.67;;;;;;;33.32;23.91;159946.31;1742263;80;21206;-77
2021/04/04 12:01:51;;;;;;;5.58;3.40;;;;;;;33.38;23.72;159962.31;1742075;79;21752;-77
2021/04/04 12:04:36;;;;;;;4.40;2.95;;;;;;;33.25;23.66;159928.94;1744753;79;21810;-76
2021/04/04 12:07:18;;;;;;;5.87;3.20;;;;;;;33.96;23.93;160117.30;1736047;79;21213;-77
2021/04/04 12:09:51;;;;;;;5.55;3.70;;;;;;;35.26;22.79;160467.66;1745221;80;21226;-75
2021/04/04 12:12:25;;;;;;;5.58;3.60;;;;;;;36.47;22.00;160792.88;1737040;80;21368;-73
2021/04/04 12:15:02;;;;;;;3.70;2.92;;;;;;;37.30;21.10;161017.83;1715721;81;21227;-77
2021/04/04 12:17:41;;;;;;;6.53;3.55;;;;;;;38.00;20.42;161205.44;1739824;80;21349;-74